Time;durP1;ratioP1;P1;durP2;ratioP2;P2;SDS_P1;SDS_P2;PMS_P1;PMS_P2;Temp;Humidity;BMP_temperature;BMP_pressure;BME280_temperature;BME280_humidity;BME280_pressure;Samples;Min_cycle;Max_cycle;Signal;HPM_P1;HPM_P2
2021/06/03 00:00:15;;;;;;;9.98;5.78;;;;;;;14.58;46.74;101589.09;1687145;82;25755;-63
2021/06/03 00:02:44;;;;;;;15.05;5.92;;;;;;;14.55;46.85;101591.92;1693798;82;27531;-63
2021/06/03 00:05:15;;;;;;;15.53;5.75;;;;;;;14.53;46.96;101594.28;1701495;82;26098;-63
2021/06/03 00:07:42;;;;;;;10.53;6.20;;;;;;;14.50;47.07;101593.08;1699300;82;25811;-64
2021/06/03 00:10:12;;;;;;;15.20;6.37;;;;;;;14.48;47.14;101594.49;1694571;82;25823;-64
2021/06/03 00:12:38;;;;;;;14.85;6.50;;;;;;;14.46;47.22;101594.16;1690339;82;25786;-64
2021/06/03 00:15:14;;;;;;;20.20;5.97;;;;;;;14.43;47.30;101595.64;1703701;82;27402;-63
2021/06/03 00:17:43;;;;;;;11.00;6.25;;;;;;;14.39;47.43;101597.56;1703363;82;26502;-63
2021/06/03 00:20:16;;;;;;;14.95;6.10;;;;;;;14.36;47.48;101592.30;1701735;82;25769;-64
2021/06/03 00:22:42;;;;;;;10.70;5.42;;;;;;;14.33;47.58;101591.09;1688404;82;26323;-64
2021/06/03 00:25:09;;;;;;;12.45;5.97;;;;;;;14.32;47.70;101594.73;1697190;82;25688;-63
2021/06/03 00:27:36;;;;;;;10.72;6.25;;;;;;;14.30;47.76;101595.27;1691439;82;27485;-63
2021/06/03 00:30:08;;;;;;;18.75;6.37;;;;;;;14.26;47.83;101593.17;1695202;82;27044;-63
2021/06/03 00:32:36;;;;;;;13.03;6.30;;;;;;;14.23;47.91;101600.05;1692602;82;25786;-63
2021/06/03 00:35:06;;;;;;;10.18;5.92;;;;;;;14.18;47.99;101601.19;1688712;82;26166;-63
2021/06/03 00:37:33;;;;;;;12.98;5.70;;;;;;;14.13;48.03;101592.42;1685999;82;25846;-63
2021/06/03 00:39:59;;;;;;;16.23;6.62;;;;;;;14.10;48.20;101590.73;1690776;82;29493;-63
2021/06/03 00:42:25;;;;;;;13.03;5.53;;;;;;;14.07;48.24;101595.38;1681928;82;25867;-63
2021/06/03 00:44:52;;;;;;;12.45;6.03;;;;;;;14.01;48.26;101595.17;1687166;82;25798;-63
2021/06/03 00:47:18;;;;;;;11.68;5.28;;;;;;;13.94;48.39;101593.20;1694656;82;26750;-63
2021/06/03 00:49:44;;;;;;;10.40;5.97;;;;;;;13.90;48.50;101594.27;1694605;82;25763;-63
2021/06/03 00:52:11;;;;;;;15.88;6.25;;;;;;;13.86;48.59;101585.91;1689091;82;29628;-64
2021/06/03 00:54:37;;;;;;;13.15;6.15;;;;;;;13.83;48.68;101579.77;1679670;82;26029;-63
2021/06/03 00:57:06;;;;;;;14.43;5.83;;;;;;;13.78;48.71;101581.31;1687439;82;25732;-63
2021/06/03 00:59:32;;;;;;;13.45;5.65;;;;;;;13.73;48.81;101586.02;1688847;82;25779;-63
2021/06/03 01:01:58;;;;;;;14.28;5.95;;;;;;;13.68;48.91;101577.25;1685804;82;25761;-63
2021/06/03 01:04:27;;;;;;;12.47;6.00;;;;;;;13.65;49.01;101585.45;1670765;82;29515;-63
2021/06/03 01:06:53;;;;;;;8.10;4.87;;;;;;;13.62;49.08;101586.45;1695571;82;25795;-65
2021/06/03 01:09:28;;;;;;;13.75;5.85;;;;;;;13.62;49.18;101588.28;1682920;82;25752;-63
2021/06/03 01:12:09;;;;;;;12.25;5.42;;;;;;;13.57;49.26;101588.94;1679184;82;25809;-63
2021/06/03 01:14:46;;;;;;;13.13;5.37;;;;;;;13.52;49.28;101594.51;1678901;82;26476;-63
2021/06/03 01:17:12;;;;;;;17.12;5.75;;;;;;;13.47;49.40;101592.47;1686579;82;27632;-63
2021/06/03 01:19:42;;;;;;;10.30;5.78;;;;;;;13.44;49.48;101593.06;1680173;82;25784;-63
2021/06/03 01:22:36;;;;;;;25.75;6.70;;;;;;;13.38;49.58;101597.34;1683778;82;25895;-63
2021/06/03 01:25:09;;;;;;;12.10;6.87;;;;;;;13.36;49.63;101592.02;1682055;82;27281;-63
2021/06/03 01:27:37;;;;;;;13.05;5.85;;;;;;;13.33;49.76;101593.02;1689283;82;25693;-63
2021/06/03 01:30:24;;;;;;;18.23;6.42;;;;;;;13.30;49.85;101591.80;1667786;82;27472;-63
2021/06/03 01:32:58;;;;;;;12.82;5.58;;;;;;;13.29;49.91;101591.86;1639410;85;26733;-63
2021/06/03 01:35:29;;;;;;;11.55;5.53;;;;;;;13.26;50.04;101598.23;1629898;85;25917;-63
2021/06/03 01:37:57;;;;;;;10.48;5.97;;;;;;;13.24;50.09;101607.31;1628632;85;26127;-63
2021/06/03 01:40:27;;;;;;;12.05;5.92;;;;;;;13.21;50.15;101602.92;1627450;85;26731;-63
2021/06/03 01:42:54;;;;;;;12.40;5.30;;;;;;;13.19;50.27;101602.11;1621577;85;28115;-63
2021/06/03 01:45:22;;;;;;;14.00;6.92;;;;;;;13.18;50.30;101602.16;1631197;85;26352;-63
2021/06/03 01:47:53;;;;;;;18.57;7.95;;;;;;;13.15;50.39;101604.94;1686596;82;25790;-63
2021/06/03 01:50:21;;;;;;;13.20;6.30;;;;;;;13.11;50.46;101602.84;1684104;82;25758;-63
2021/06/03 01:52:49;;;;;;;9.80;6.40;;;;;;;13.10;50.52;101606.47;1676979;82;25701;-63
2021/06/03 01:55:16;;;;;;;16.67;6.42;;;;;;;13.08;50.58;101603.42;1685797;82;29622;-64
2021/06/03 01:57:45;;;;;;;14.20;6.72;;;;;;;13.06;50.66;101608.86;1691241;82;26431;-63
2021/06/03 02:00:16;;;;;;;13.18;6.90;;;;;;;13.04;50.69;101601.31;1704099;82;25723;-63
2021/06/03 02:02:41;;;;;;;;;;;;;;;13.01;50.74;101610.86;1713142;82;25774;-63
2021/06/03 02:05:11;;;;;;;15.43;6.55;;;;;;;12.97;50.91;101610.13;1705180;82;25758;-63
2021/06/03 02:07:38;;;;;;;10.13;6.13;;;;;;;12.92;50.89;101612.58;1695492;82;28282;-63
2021/06/03 02:10:07;;;;;;;15.65;7.00;;;;;;;12.89;50.93;101612.23;1691786;82;26843;-63
2021/06/03 02:12:37;;;;;;;19.40;7.50;;;;;;;12.87;51.05;101613.22;1691678;82;25887;-63
2021/06/03 02:15:07;;;;;;;10.98;6.60;;;;;;;12.83;51.09;101607.08;1701325;82;25811;-63
2021/06/03 02:17:40;;;;;;;13.45;6.50;;;;;;;12.83;51.15;101606.20;1701814;82;25791;-63
2021/06/03 02:20:27;;;;;;;9.75;5.83;;;;;;;12.80;51.24;101604.50;1697501;82;27449;-63
2021/06/03 02:22:56;;;;;;;13.00;6.03;;;;;;;12.80;51.33;101606.31;1695598;82;25739;-63
2021/06/03 02:25:25;;;;;;;11.20;5.72;;;;;;;12.77;51.38;101603.73;1703164;82;25783;-63
2021/06/03 02:27:52;;;;;;;17.07;7.37;;;;;;;12.75;51.47;101601.57;1697465;82;25760;-63
2021/06/03 02:30:19;;;;;;;12.93;6.83;;;;;;;12.71;51.46;101599.46;1701534;82;25777;-63
2021/06/03 02:32:47;;;;;;;9.05;6.17;;;;;;;12.67;51.59;101604.08;1695024;82;27374;-62
2021/06/03 02:35:14;;;;;;;17.20;6.80;;;;;;;12.65;51.64;101599.22;1695366;82;26099;-63
2021/06/03 02:37:44;;;;;;;12.80;6.42;;;;;;;12.63;51.72;101605.12;1691093;82;25766;-63
2021/06/03 02:40:25;;;;;;;14.03;6.43;;;;;;;12.62;51.73;101603.37;1693363;82;25723;-63
2021/06/03 02:42:53;;;;;;;12.28;6.05;;;;;;;12.60;51.81;101606.58;1694954;82;25793;-63
2021/06/03 02:45:25;;;;;;;14.87;6.92;;;;;;;12.58;51.92;101600.38;1703599;82;28202;-63
2021/06/03 02:47:53;;;;;;;;;;;;;;;12.56;51.97;101604.94;1694914;82;26003;-63
2021/06/03 02:50:22;;;;;;;9.48;5.53;;;;;;;12.54;52.13;101606.80;1694036;82;25736;-63
2021/06/03 02:52:48;;;;;;;11.50;6.08;;;;;;;12.49;52.09;101608.78;1657928;83;25736;-62
2021/06/03 02:55:19;;;;;;;10.95;6.17;;;;;;;12.48;52.09;101608.83;1658613;83;25746;-63
2021/06/03 02:57:45;;;;;;;10.85;6.10;;;;;;;12.46;52.15;101611.58;1661143;84;27454;-62
2021/06/03 03:00:24;;;;;;;14.13;6.37;;;;;;;12.45;52.21;101612.51;1654507;85;25871;-63
2021/06/03 03:02:51;;;;;;;14.60;6.47;;;;;;;12.43;52.27;101618.41;1650743;84;26474;-63
2021/06/03 03:05:21;;;;;;;10.82;6.08;;;;;;;12.42;52.33;101615.31;1688882;82;27628;-63
2021/06/03 03:07:48;;;;;;;11.97;6.37;;;;;;;12.43;52.43;101625.59;1686376;82;25787;-63
2021/06/03 03:10:26;;;;;;;13.70;6.40;;;;;;;12.42;52.53;101627.88;1693801;82;27453;-63
2021/06/03 03:12:53;;;;;;;17.20;6.42;;;;;;;12.43;52.52;101632.31;1700197;82;27242;-63
2021/06/03 03:15:22;;;;;;;11.12;6.30;;;;;;;12.42;52.67;101634.13;1700626;82;25804;-63
2021/06/03 03:17:48;;;;;;;12.55;6.72;;;;;;;12.42;52.71;101634.13;1693630;82;27363;-63
2021/06/03 03:20:18;;;;;;;10.45;5.90;;;;;;;12.42;52.81;101633.25;1697817;82;25734;-63
2021/06/03 03:22:47;;;;;;;16.10;6.40;;;;;;;12.41;52.82;101637.75;1689476;82;27424;-63
2021/06/03 03:25:15;;;;;;;15.43;6.75;;;;;;;12.40;52.89;101644.06;1690299;82;25901;-63
2021/06/03 03:27:46;;;;;;;18.20;6.60;;;;;;;12.41;52.92;101643.13;1697470;82;25729;-63
2021/06/03 03:30:14;;;;;;;10.18;6.42;;;;;;;12.41;52.99;101645.81;1685682;82;25803;-63
2021/06/03 03:32:40;;;;;;;14.23;6.70;;;;;;;12.43;53.08;101639.92;1691903;82;26151;-63
2021/06/03 03:35:09;;;;;;;14.58;6.40;;;;;;;12.44;53.14;101644.36;1691227;82;27327;-63
2021/06/03 03:37:38;;;;;;;10.60;6.28;;;;;;;12.46;53.18;101653.25;1696739;82;26095;-63
2021/06/03 03:40:14;;;;;;;13.45;6.35;;;;;;;12.46;53.24;101647.00;1694672;82;25800;-63
2021/06/03 03:42:40;;;;;;;14.93;7.50;;;;;;;12.47;53.31;101648.29;1707717;82;25771;-63
2021/06/03 03:45:10;;;;;;;14.20;6.87;;;;;;;12.48;53.33;101649.17;1690893;82;25947;-63
2021/06/03 03:47:36;;;;;;;11.43;6.28;;;;;;;12.50;53.40;101657.59;1691462;82;27475;-65
2021/06/03 03:50:10;;;;;;;9.85;6.22;;;;;;;12.50;53.45;101661.63;1690811;82;25774;-63
2021/06/03 03:52:41;;;;;;;14.35;6.47;;;;;;;12.52;53.52;101661.11;1705620;82;25694;-63
2021/06/03 03:55:11;;;;;;;14.35;7.10;;;;;;;12.54;53.54;101657.89;1708670;82;25724;-63
2021/06/03 03:57:39;;;;;;;19.60;6.87;;;;;;;12.54;53.54;101660.59;1677329;82;25812;-63
2021/06/03 04:00:16;;;;;;;12.60;7.53;;;;;;;12.54;53.61;101661.93;1680523;82;29020;-64
2021/06/03 04:02:44;;;;;;;11.85;6.53;;;;;;;12.56;53.61;101663.22;1675298;82;26361;-63
2021/06/03 04:05:12;;;;;;;14.78;7.12;;;;;;;12.56;53.69;101654.69;1687736;82;26489;-63
2021/06/03 04:07:39;;;;;;;17.35;7.92;;;;;;;12.58;53.73;101656.86;1680440;82;27538;-63
2021/06/03 04:10:12;;;;;;;12.35;6.12;;;;;;;12.61;53.78;101650.48;1689216;82;25871;-63
2021/06/03 04:12:38;;;;;;;;;;;;;;;12.61;53.79;101648.68;1690639;82;27438;-63
2021/06/03 04:15:06;;;;;;;10.78;5.92;;;;;;;12.64;53.98;101655.30;1676797;82;25700;-63
2021/06/03 04:17:35;;;;;;;9.83;6.80;;;;;;;12.65;53.88;101647.64;1671087;82;25803;-63
2021/06/03 04:20:01;;;;;;;11.55;7.20;;;;;;;12.69;53.95;101657.82;1676139;82;26100;-63
2021/06/03 04:22:27;;;;;;;19.37;7.85;;;;;;;12.73;53.97;101653.20;1675244;82;26191;-63
2021/06/03 04:24:54;;;;;;;14.68;7.60;;;;;;;12.73;53.94;101650.05;1689200;82;27525;-63
2021/06/03 04:27:20;;;;;;;12.75;7.53;;;;;;;12.76;54.07;101655.32;1700176;82;25808;-63
2021/06/03 04:29:47;;;;;;;16.30;8.28;;;;;;;12.81;54.13;101656.50;1673451;82;26576;-63
2021/06/03 04:32:14;;;;;;;15.18;7.62;;;;;;;12.85;54.13;101658.14;1688031;82;27607;-63
2021/06/03 04:34:40;;;;;;;14.98;7.15;;;;;;;12.89;54.21;101662.01;1680620;82;26573;-63
2021/06/03 04:37:06;;;;;;;20.30;7.50;;;;;;;12.93;54.20;101665.47;1679464;82;27367;-63
2021/06/03 04:39:32;;;;;;;13.45;6.55;;;;;;;12.98;54.23;101668.87;1680516;82;26563;-63
2021/06/03 04:41:58;;;;;;;12.07;7.30;;;;;;;13.01;54.28;101662.87;1690419;82;25709;-63
2021/06/03 04:44:24;;;;;;;19.10;7.12;;;;;;;13.07;54.27;101670.30;1679218;82;25766;-63
2021/06/03 04:46:51;;;;;;;14.20;7.75;;;;;;;13.11;54.33;101670.13;1681119;82;25811;-63
2021/06/03 04:49:18;;;;;;;17.12;6.80;;;;;;;13.18;54.38;101678.89;1691048;82;27500;-63
2021/06/03 04:51:44;;;;;;;14.00;6.75;;;;;;;13.21;54.33;101681.00;1676159;82;25725;-63
2021/06/03 04:54:10;;;;;;;11.97;6.83;;;;;;;13.26;54.35;101679.01;1681604;82;25820;-63
2021/06/03 04:56:36;;;;;;;11.08;6.33;;;;;;;13.32;54.40;101680.59;1686408;82;26455;-63
2021/06/03 04:59:02;;;;;;;13.22;7.20;;;;;;;13.39;54.43;101682.58;1708133;82;26093;-63
2021/06/03 05:01:28;;;;;;;14.50;7.65;;;;;;;13.47;54.45;101687.20;1697383;82;27534;-63
2021/06/03 05:03:54;;;;;;;17.25;7.72;;;;;;;13.55;54.44;101687.31;1709130;82;27249;-63
2021/06/03 05:06:21;;;;;;;14.15;6.83;;;;;;;13.62;54.45;101686.14;1692635;82;26431;-63
2021/06/03 05:08:48;;;;;;;12.15;6.75;;;;;;;13.71;54.44;101692.98;1696867;82;27574;-63
2021/06/03 05:11:14;;;;;;;13.50;7.03;;;;;;;13.79;54.42;101694.90;1687883;82;26497;-63
2021/06/03 05:13:42;;;;;;;14.68;7.53;;;;;;;13.86;54.39;101695.06;1689648;82;29513;-64
2021/06/03 05:16:08;;;;;;;17.98;9.05;;;;;;;13.94;54.37;101694.28;1699175;82;25799;-63
2021/06/03 05:18:38;;;;;;;19.80;7.95;;;;;;;14.04;54.33;101693.91;1710661;82;25849;-64
2021/06/03 05:21:08;;;;;;;18.25;7.62;;;;;;;14.12;54.28;101696.70;1694193;82;26144;-63
2021/06/03 05:23:34;;;;;;;14.65;6.87;;;;;;;14.21;54.24;101704.87;1697337;82;25799;-63
2021/06/03 05:26:01;;;;;;;9.48;7.08;;;;;;;14.29;54.21;101695.99;1700309;82;27474;-64
2021/06/03 05:28:28;;;;;;;17.90;7.40;;;;;;;14.37;54.12;101698.37;1700203;82;25759;-63
2021/06/03 05:30:54;;;;;;;10.82;6.83;;;;;;;14.41;54.07;101688.73;1692218;82;25859;-63
2021/06/03 05:33:20;;;;;;;15.25;8.03;;;;;;;14.50;54.03;101692.42;1696255;82;26495;-63
2021/06/03 05:35:46;;;;;;;15.63;7.00;;;;;;;14.59;53.92;101698.77;1691188;82;25747;-64
2021/06/03 05:38:12;;;;;;;14.40;6.90;;;;;;;14.66;53.82;101697.16;1691943;82;27420;-64
2021/06/03 05:40:38;;;;;;;12.35;7.10;;;;;;;14.72;53.73;101698.23;1689065;82;27174;-63
2021/06/03 05:43:04;;;;;;;16.48;7.40;;;;;;;14.77;53.66;101701.14;1701569;82;25759;-63
2021/06/03 05:45:32;;;;;;;11.88;6.75;;;;;;;14.82;53.56;101705.86;1700918;82;26507;-63
2021/06/03 05:47:57;;;;;;;13.25;6.75;;;;;;;14.88;53.51;101708.29;1694178;82;25817;-63
2021/06/03 05:50:26;;;;;;;14.60;6.65;;;;;;;14.94;53.46;101706.67;1705893;82;28823;-63
2021/06/03 05:52:53;;;;;;;17.37;7.50;;;;;;;15.06;53.44;101706.59;1692288;82;25745;-63
2021/06/03 05:55:21;;;;;;;12.95;7.83;;;;;;;15.13;53.32;101711.24;1690217;82;25814;-64
2021/06/03 05:57:47;;;;;;;16.07;7.05;;;;;;;15.19;53.24;101709.61;1686999;82;26404;-63
2021/06/03 06:00:18;;;;;;;20.48;7.67;;;;;;;15.26;53.19;101707.91;1694195;82;25838;-63
2021/06/03 06:08:06;;;;;;;15.00;7.92;;;;;;;15.44;52.99;101713.41;1681019;82;25799;-64
2021/06/03 06:10:37;;;;;;;16.30;7.60;;;;;;;15.52;52.90;101715.28;1694615;82;25831;-64
2021/06/03 06:13:04;;;;;;;16.35;7.67;;;;;;;15.58;52.87;101718.61;1680943;82;25694;-64
2021/06/03 06:15:32;;;;;;;11.50;7.30;;;;;;;15.67;52.79;101716.39;1683061;82;27462;-64
2021/06/03 06:17:58;;;;;;;11.85;7.60;;;;;;;15.73;52.77;101724.20;1671100;82;25832;-64
2021/06/03 06:20:27;;;;;;;19.32;7.85;;;;;;;15.78;52.72;101720.33;1688694;82;26411;-64
2021/06/03 06:22:56;;;;;;;10.40;7.12;;;;;;;15.85;52.66;101723.14;1678150;82;26123;-64
2021/06/03 06:25:25;;;;;;;11.22;7.97;;;;;;;15.92;52.59;101723.73;1682270;82;25722;-64
2021/06/03 06:27:55;;;;;;;12.53;7.70;;;;;;;16.00;52.57;101721.52;1682304;82;28117;-64
2021/06/03 06:30:22;;;;;;;12.53;7.15;;;;;;;16.08;52.50;101726.56;1692459;82;25769;-64
2021/06/03 06:32:48;;;;;;;9.95;7.37;;;;;;;16.16;52.44;101723.00;1675672;82;26298;-64
2021/06/03 06:35:15;;;;;;;9.93;7.53;;;;;;;16.23;52.40;101720.39;1672928;82;26249;-64
2021/06/03 06:37:42;;;;;;;13.65;7.22;;;;;;;16.32;52.33;101725.34;1679798;82;25821;-64
2021/06/03 06:40:09;;;;;;;12.15;6.90;;;;;;;16.40;52.27;101725.84;1685686;82;25911;-64
2021/06/03 06:42:36;;;;;;;15.25;7.20;;;;;;;16.48;52.21;101735.80;1672684;82;26271;-64
2021/06/03 06:45:06;;;;;;;10.60;6.15;;;;;;;16.58;52.14;101735.33;1682893;82;25795;-63
2021/06/03 06:47:38;;;;;;;16.15;6.50;;;;;;;16.68;52.10;101732.11;1675301;82;25817;-64
2021/06/03 06:50:11;;;;;;;9.20;5.83;;;;;;;16.78;51.96;101737.92;1672739;82;25881;-63
2021/06/03 06:52:39;;;;;;;13.75;6.78;;;;;;;16.85;51.86;101729.41;1684549;82;27335;-63
2021/06/03 06:55:09;;;;;;;16.67;6.47;;;;;;;16.92;51.76;101732.67;1680495;82;26112;-63
2021/06/03 06:57:39;;;;;;;14.85;6.60;;;;;;;17.00;51.68;101729.08;1686830;82;25781;-63
2021/06/03 07:00:12;;;;;;;7.25;5.42;;;;;;;17.10;51.59;101728.11;1694314;83;26563;-63
2021/06/03 07:02:38;;;;;;;16.30;6.50;;;;;;;17.19;51.46;101731.69;1696044;82;26821;-68
2021/06/03 07:05:10;;;;;;;10.10;6.50;;;;;;;17.29;51.36;101732.06;1697927;82;28850;-68
2021/06/03 07:07:36;;;;;;;10.98;6.78;;;;;;;17.38;51.26;101732.92;1697040;82;25713;-68
2021/06/03 07:10:09;;;;;;;12.80;6.42;;;;;;;17.45;51.14;101728.91;1691318;82;25794;-68
2021/06/03 07:12:36;;;;;;;10.58;5.95;;;;;;;17.55;51.08;101730.16;1691757;82;25770;-68
2021/06/03 07:15:14;;;;;;;12.33;5.70;;;;;;;17.65;50.97;101735.47;1700168;82;25671;-68
2021/06/03 07:17:41;;;;;;;12.70;6.35;;;;;;;17.75;50.87;101736.74;1688045;82;27479;-67
2021/06/03 07:20:18;;;;;;;17.12;6.90;;;;;;;17.87;50.69;101727.52;1697722;82;25738;-67
2021/06/03 07:22:48;;;;;;;14.30;5.67;;;;;;;17.98;50.56;101730.50;1700060;82;25775;-67
2021/06/03 07:25:24;;;;;;;13.68;5.83;;;;;;;18.08;50.38;101727.66;1692829;82;26381;-67
2021/06/03 07:27:54;;;;;;;9.83;4.75;;;;;;;17.98;50.22;101697.95;1698395;82;26468;-67
2021/06/03 07:30:24;;;;;;;12.90;4.80;;;;;;;18.27;50.04;101731.02;1692701;82;27522;-68
2021/06/03 07:32:55;;;;;;;9.05;4.90;;;;;;;18.35;49.85;101729.22;1697742;82;26410;-68
2021/06/03 07:35:21;;;;;;;6.42;4.00;;;;;;;18.45;49.69;101731.30;1709883;82;25723;-68
2021/06/03 07:37:50;;;;;;;10.28;4.60;;;;;;;18.55;49.41;101730.77;1696348;82;25754;-67
2021/06/03 07:40:25;;;;;;;8.88;4.58;;;;;;;18.64;49.18;101731.61;1700237;82;25759;-67
2021/06/03 07:42:52;;;;;;;10.63;4.72;;;;;;;18.70;49.02;101731.23;1702764;82;26873;-67
2021/06/03 07:45:22;;;;;;;10.95;4.97;;;;;;;18.79;48.79;101738.34;1694134;82;25945;-68
2021/06/03 07:47:51;;;;;;;12.33;3.90;;;;;;;18.90;48.67;101736.83;1693780;82;26018;-68
2021/06/03 07:50:17;;;;;;;10.38;4.37;;;;;;;19.01;48.48;101739.28;1702161;82;25844;-68
2021/06/03 07:52:44;;;;;;;15.60;4.25;;;;;;;19.10;48.25;101733.28;1700866;82;25938;-69
2021/06/03 07:55:15;;;;;;;6.85;3.70;;;;;;;19.21;48.11;101735.33;1694605;82;28677;-67
2021/06/03 07:57:44;;;;;;;8.33;4.47;;;;;;;19.31;47.88;101742.44;1697280;82;26095;-67
2021/06/03 08:00:13;;;;;;;6.78;3.75;;;;;;;19.41;47.64;101737.68;1671878;82;26313;-66
2021/06/03 08:02:43;;;;;;;5.03;3.75;;;;;;;19.49;47.42;101749.44;1667713;82;25767;-67
2021/06/03 08:05:14;;;;;;;8.43;4.30;;;;;;;19.58;47.25;101751.61;1676954;82;25795;-67
2021/06/03 08:07:41;;;;;;;8.13;4.25;;;;;;;19.65;46.98;101750.73;1690723;82;27147;-68
2021/06/03 08:10:11;;;;;;;9.95;3.40;;;;;;;19.70;46.66;101746.75;1683868;82;25857;-67
2021/06/03 08:12:37;;;;;;;8.20;3.50;;;;;;;19.78;46.44;101746.25;1676507;82;25805;-67
2021/06/03 08:15:08;;;;;;;9.43;3.52;;;;;;;19.87;46.30;101748.87;1679994;82;25803;-68
2021/06/03 08:17:35;;;;;;;9.33;3.55;;;;;;;19.94;45.84;101750.22;1681235;82;25744;-68
2021/06/03 08:20:01;;;;;;;8.00;3.47;;;;;;;20.00;45.58;101756.14;1686920;82;27479;-68
2021/06/03 08:22:29;;;;;;;8.98;4.37;;;;;;;20.04;45.40;101748.64;1684582;82;25939;-68
2021/06/03 08:24:57;;;;;;;18.20;5.92;;;;;;;20.11;45.24;101745.91;1681068;82;25860;-70
2021/06/03 08:27:25;;;;;;;14.78;5.25;;;;;;;20.18;45.03;101754.05;1685567;82;25927;-70
2021/06/03 08:29:52;;;;;;;8.33;4.15;;;;;;;20.29;44.86;101746.54;1683024;81;25828;-69
2021/06/03 08:32:19;;;;;;;14.18;5.50;;;;;;;20.38;44.57;101746.83;1691542;82;27474;-69
2021/06/03 08:34:45;;;;;;;8.63;3.72;;;;;;;20.33;44.16;101719.00;1694258;82;25759;-69
2021/06/03 08:37:11;;;;;;;10.85;3.65;;;;;;;20.61;43.16;101749.86;1686805;83;26152;-69
2021/06/03 08:39:37;;;;;;;12.53;3.92;;;;;;;20.63;42.98;101746.05;1680419;82;25944;-69
2021/06/03 08:42:06;;;;;;;12.00;2.92;;;;;;;20.71;42.86;101736.87;1687348;82;25818;-69
2021/06/03 08:44:34;;;;;;;8.98;3.37;;;;;;;20.79;42.58;101741.80;1678011;82;27406;-70
2021/06/03 08:47:03;;;;;;;11.40;3.55;;;;;;;20.90;42.29;101745.11;1679235;82;25781;-70
2021/06/03 08:49:30;;;;;;;8.73;3.12;;;;;;;20.99;41.97;101742.61;1679054;82;25917;-70
2021/06/03 08:52:02;;;;;;;7.30;3.15;;;;;;;21.06;41.71;101749.39;1680176;82;26592;-71
2021/06/03 08:54:24;;;;;;;5.97;2.75;;;;;;;21.08;40.71;101740.61;1676999;82;25793;-70
2021/06/03 08:56:50;;;;;;;6.17;2.62;;;;;;;21.17;40.66;101743.67;1684597;82;27442;-70
2021/06/03 08:59:16;;;;;;;10.65;2.80;;;;;;;21.30;40.47;101743.22;1689296;82;25787;-70
2021/06/03 09:01:43;;;;;;;8.08;2.50;;;;;;;21.42;39.98;101746.44;1681071;82;26586;-70
2021/06/03 09:04:10;;;;;;;6.12;2.50;;;;;;;21.48;39.78;101744.64;1680104;82;25810;-71
2021/06/03 09:06:37;;;;;;;5.50;2.37;;;;;;;21.54;39.45;101744.20;1686289;82;25860;-71
2021/06/03 09:09:08;;;;;;;3.98;2.25;;;;;;;21.61;39.23;101744.63;1684162;82;27497;-70
2021/06/03 09:11:34;;;;;;;7.00;4.83;;;;;;;21.64;39.04;101741.19;1685251;82;25768;-70
2021/06/03 09:14:05;;;;;;;6.70;3.22;;;;;;;21.69;38.87;101737.64;1682360;82;25832;-71
2021/06/03 09:16:36;;;;;;;5.78;2.50;;;;;;;21.76;38.75;101742.64;1675721;82;25901;-71
2021/06/03 09:19:13;;;;;;;4.92;2.98;;;;;;;21.80;38.51;101745.53;1688087;82;25743;-73
2021/06/03 09:21:50;;;;;;;6.95;2.90;;;;;;;21.85;38.40;101744.70;1688304;82;27448;-71
2021/06/03 09:24:20;;;;;;;3.15;2.20;;;;;;;21.88;38.20;101738.53;1681776;82;25781;-72
2021/06/03 09:26:52;;;;;;;9.30;2.47;;;;;;;21.93;38.03;101737.70;1682799;82;25778;-71
2021/06/03 09:29:29;;;;;;;4.35;2.02;;;;;;;21.93;37.84;101742.28;1693177;82;25906;-72
2021/06/03 09:32:09;;;;;;;10.65;3.00;;;;;;;21.96;37.73;101736.59;1674205;82;25739;-71
2021/06/03 09:34:39;;;;;;;4.12;2.37;;;;;;;21.95;37.37;101743.05;1677103;82;27476;-71
2021/06/03 09:37:09;;;;;;;4.62;2.17;;;;;;;21.97;37.24;101741.08;1681636;82;26180;-70
2021/06/03 09:39:38;;;;;;;;;;;;;;;21.99;37.18;101742.70;1674562;82;26167;-68
2021/06/03 09:42:20;;;;;;;13.03;2.77;;;;;;;22.05;36.99;101742.78;1680502;82;26690;-68
2021/06/03 09:44:52;;;;;;;9.43;2.77;;;;;;;21.85;37.04;101698.30;1677618;82;25799;-72
2021/06/03 09:47:23;;;;;;;10.23;2.55;;;;;;;22.07;36.62;101733.11;1694474;82;28108;-71
2021/06/03 09:49:58;;;;;;;4.53;2.60;;;;;;;21.94;36.45;101727.65;1672072;82;25825;-71
2021/06/03 09:52:29;;;;;;;4.15;2.17;;;;;;;21.92;36.50;101726.40;1675853;82;25872;-69
2021/06/03 09:55:00;;;;;;;3.02;1.98;;;;;;;21.97;36.38;101723.33;1685079;82;25847;-69
2021/06/03 09:57:39;;;;;;;4.10;2.58;;;;;;;22.01;36.26;101728.94;1675071;82;25972;-71
2021/06/03 10:00:15;;;;;;;3.90;2.37;;;;;;;22.05;36.23;101727.77;1707280;82;28173;-69
2021/06/03 10:02:44;;;;;;;4.22;2.90;;;;;;;22.14;36.09;101720.74;1707717;82;25819;-72
2021/06/03 10:05:16;;;;;;;4.37;2.62;;;;;;;22.18;35.99;101717.67;1695447;82;25810;-72
2021/06/03 10:08:01;;;;;;;6.55;2.62;;;;;;;22.23;35.92;101717.32;1706544;82;25859;-71
2021/06/03 10:10:32;;;;;;;6.80;3.02;;;;;;;22.27;35.73;101714.73;1689874;82;25743;-72
2021/06/03 10:13:12;;;;;;;4.75;1.95;;;;;;;22.32;35.63;101716.14;1666842;83;27986;-71
2021/06/03 10:15:40;;;;;;;10.27;2.23;;;;;;;22.35;35.48;101720.00;1643921;84;25825;-71
2021/06/03 10:18:17;;;;;;;3.27;2.52;;;;;;;22.40;35.38;101721.51;1663606;83;26482;-71
2021/06/03 10:20:56;;;;;;;7.20;2.25;;;;;;;22.43;35.28;101717.18;1639717;84;26092;-71
2021/06/03 10:23:28;;;;;;;6.78;1.80;;;;;;;22.51;35.25;101715.61;1643820;84;25729;-71
2021/06/03 10:26:01;;;;;;;4.42;2.20;;;;;;;22.61;35.13;101720.74;1695013;82;28104;-72
2021/06/03 10:28:28;;;;;;;5.65;2.08;;;;;;;22.64;34.98;101710.94;1688277;82;25840;-73
2021/06/03 10:31:05;;;;;;;8.70;2.42;;;;;;;22.67;34.67;101695.67;1694950;82;25795;-72
2021/06/03 10:33:31;;;;;;;7.15;2.80;;;;;;;22.67;34.67;101695.67;1691016;82;25752;-71
2021/06/03 10:36:05;;;;;;;6.00;2.40;;;;;;;22.87;34.57;101713.29;1705468;82;25635;-71
2021/06/03 10:38:35;;;;;;;4.00;2.35;;;;;;;22.91;34.58;101714.80;1691224;82;27361;-69
2021/06/03 10:41:05;;;;;;;6.42;2.10;;;;;;;23.09;34.53;101717.08;1698548;82;26669;-75
2021/06/03 10:43:37;;;;;;;5.37;2.35;;;;;;;23.13;34.24;101721.31;1701741;82;25763;-69
2021/06/03 10:46:07;;;;;;;6.03;2.60;;;;;;;23.06;33.71;101720.92;1695651;82;25772;-71
2021/06/03 10:48:35;;;;;;;3.50;2.17;;;;;;;22.89;33.85;101715.91;1702215;82;25915;-73
2021/06/03 10:51:08;;;;;;;7.08;2.62;;;;;;;22.93;33.86;101716.91;1687762;82;27503;-72
2021/06/03 10:53:44;;;;;;;8.43;2.95;;;;;;;23.28;33.94;101717.36;1699183;82;25711;-73
2021/06/03 10:56:14;;;;;;;8.28;2.37;;;;;;;23.28;33.94;101717.36;1696412;82;25763;-72
2021/06/03 10:58:45;;;;;;;6.12;2.40;;;;;;;23.48;33.49;101719.33;1690012;82;27586;-70
2021/06/03 11:01:18;;;;;;;5.20;2.02;;;;;;;23.57;33.58;101709.05;1691326;82;25871;-68
2021/06/03 11:04:01;;;;;;;5.22;2.60;;;;;;;23.57;33.58;101709.05;1693258;82;28056;-70
2021/06/03 11:06:38;;;;;;;7.37;4.65;;;;;;;23.49;32.97;101686.00;1704620;82;26504;-66
2021/06/03 11:09:08;;;;;;;17.02;9.38;;;;;;;23.49;32.97;101686.00;1686166;82;25760;-71
2021/06/03 11:11:40;;;;;;;7.15;4.22;;;;;;;23.60;32.91;101688.77;1696204;82;25849;-71
2021/06/03 11:14:12;;;;;;;6.75;4.15;;;;;;;23.72;32.47;101703.31;1698860;82;26615;-71
2021/06/03 11:16:45;;;;;;;5.22;3.17;;;;;;;23.59;32.47;101701.58;1694847;82;27479;-71
2021/06/03 11:19:14;;;;;;;6.72;2.70;;;;;;;23.83;32.62;101697.83;1651812;85;25683;-70
2021/06/03 11:24:27;;;;;;;3.90;2.00;;;;;;;24.02;32.43;101693.94;1821857;77;25610;-66
2021/06/03 11:27:00;;;;;;;2.87;2.27;;;;;;;24.15;32.35;101693.28;1750552;78;25873;-66
2021/06/03 11:29:32;;;;;;;8.85;2.90;;;;;;;24.23;32.25;101686.66;1759949;78;27422;-66
2021/06/03 11:32:07;;;;;;;4.37;2.17;;;;;;;24.34;31.94;101677.56;1748606;79;25754;-66
2021/06/03 11:34:43;;;;;;;6.97;3.25;;;;;;;24.48;31.84;101681.88;1756466;79;26321;-66
2021/06/03 11:37:29;;;;;;;6.70;2.50;;;;;;;24.48;31.84;101681.88;1765762;78;25816;-66
2021/06/03 11:40:07;;;;;;;6.45;3.37;;;;;;;24.62;31.41;101678.81;1753254;79;25830;-66